METAR Data
IDs: Format: Raw Decoded Include TAF

Data at: 1331 UTC 14 Dec 2019

PANN 141253Z AUTO 07015G21KT 10SM CLR M04/M10 A2967 RMK AO2 SLP057 T10441100 TSNO
PANN 141153Z AUTO 07014G22KT 10SM CLR M04/M09 A2967 RMK AO2 SLP058 T10391094 11028 21039 50003 TSNO
PANN 141053Z AUTO 07011G20KT 10SM CLR M04/M09 A2968 RMK AO2 SLP061 T10391094 TSNO
PANN 140953Z AUTO 07013G20KT 10SM CLR M03/M09 A2967 RMK AO2 SLP058 T10331094 TSNO
PANN 140853Z AUTO 06013G19KT 10SM CLR M03/M09 A2966 RMK AO2 SLP055 T10331094 410111083 51006 TSNO
PANN 140753Z AUTO 08012KT 10SM CLR M03/M09 A2966 RMK AO2 SLP054 T10331094 TSNO
PANN 140653Z AUTO 07013KT 10SM CLR M03/M09 A2965 RMK AO2 SLP050 T10331089 TSNO
PANN 140553Z AUTO 07012KT 10SM CLR M03/M09 A2965 RMK AO2 SLP048 T10281089 11017 21033 51014 TSNO
PANN 140453Z AUTO 07013KT 10SM CLR M03/M09 A2963 RMK AO2 SLP044 T10281089 TSNO
PANN 140353Z AUTO 07013G20KT 10SM CLR M03/M09 A2962 RMK AO2 SLP040 T10281089 TSNO
PANN 140253Z AUTO 07010G20KT 10SM CLR M03/M09 A2961 RMK AO2 SLP035 T10281089 51012 TSNO
PANN 140153Z AUTO 07009KT 10SM CLR M02/M09 A2960 RMK AO2 SLP032 T10221089 TSNO
PANN 140053Z AUTO 08009KT 10SM CLR M02/M09 A2958 RMK AO2 SLP027 T10221089 TSNO
PANN 132353Z AUTO 07011G18KT 10SM CLR M02/M08 A2957 RMK AO2 SLP023 T10171083 11011 21017 53021 TSNO
PANN 132253Z AUTO 06009KT 10SM CLR M02/M08 A2955 RMK AO2 SLP016 T10171083 TSNO
PANN 132153Z AUTO 08013KT 10SM CLR M02/M08 A2953 RMK AO2 SLP008 T10171083 TSNO
PANN 132053Z AUTO 07015G20KT 10SM CLR M01/M08 A2951 RMK AO2 SLP002 T10111083 53022 TSNO
PANN 131953Z AUTO 07015G21KT 10SM CLR M02/M08 A2948 RMK AO2 SLP993 T10171083 TSNO
PANN 131853Z AUTO 07015G20KT 10SM CLR M02/M08 A2946 RMK AO2 SLP988 T10171083 TSNO
PANN 131753Z AUTO 07014G21KT 10SM CLR M02/M08 A2944 RMK AO2 SLP981 T10171083 11017 21028 53022 TSNO
PANN 131553Z AUTO 07012G21KT 10SM CLR M02/M08 A2939 RMK AO2 SLP964 T10171083 TSNO
PANN 131453Z AUTO 08010G20KT 10SM CLR M02/M08 A2938 RMK AO2 SLP958 T10221083 53024 TSNO
PANN 131353Z AUTO 07013G22KT 10SM CLR M02/M09 A2935 RMK AO2 SLP949 T10221089 TSNO
PANN 131253Z AUTO 07014G21KT 10SM FEW095 M03/M09 A2932 RMK AO2 SLP939 T10281094 TSNO
PANN 131153Z AUTO 07013G21KT 10SM CLR M02/M10 A2930 RMK AO2 SLP933 T10221100 11022 21100 53002 TSNO
PANN 131053Z AUTO 07012G20KT 10SM CLR M03/M11 A2930 RMK AO2 SLP930 T10281106 TSNO
PANN 130953Z AUTO 07010KT 10SM SCT030 M03/M11 A2930 RMK AO2 SLP933 T10281106 TSNO
PANN 130853Z AUTO 00000KT 10SM OVC033 M08/M12 A2930 RMK AO2 SLP933 T10831122 410111122 56007 TSNO
PANN 130753Z AUTO 00000KT 10SM OVC037 M09/M13 A2930 RMK AO2 SLP935 T10891128 TSNO
PANN 130653Z AUTO 00000KT 10SM OVC043 M09/M13 A2931 RMK AO2 SLP939 T10941133 TSNO
PANN 130553Z AUTO 32004KT 10SM OVC044 M10/M14 A2932 RMK AO2 SLP941 T11001139 11022 21122 58007 TSNO
PANN 130453Z AUTO 31006KT 10SM CLR M11/M14 A2934 RMK AO2 SLP946 T11061139 TSNO
PANN 130353Z AUTO 30003KT 10SM CLR M11/M14 A2934 RMK AO2 SLP949 T11111139 TSNO
PANN 130253Z AUTO 25003KT 10SM CLR M11/M14 A2934 RMK AO2 SLP948 T11111139 56014 TSNO
PANN 130153Z AUTO 05009KT 10SM CLR M03/M09 A2935 RMK AO2 SLP949 T10331089 TSNO